sensor_id;sensor_type;location;lat;lon;timestamp;pressure;altitude;pressure_sealevel;temperature
70435;BMP280;57876;47.792;12.960;2022-11-20T00:02:12;96255.72;;;18.09
70435;BMP280;57876;47.792;12.960;2022-11-20T00:04:37;96255.00;;;18.08
70435;BMP280;57876;47.792;12.960;2022-11-20T00:07:01;96250.25;;;18.09
70435;BMP280;57876;47.792;12.960;2022-11-20T00:09:25;96256.84;;;18.06
70435;BMP280;57876;47.792;12.960;2022-11-20T00:11:50;96247.22;;;18.05
70435;BMP280;57876;47.792;12.960;2022-11-20T00:14:14;96248.53;;;18.04
70435;BMP280;57876;47.792;12.960;2022-11-20T00:16:38;96256.03;;;18.03
70435;BMP280;57876;47.792;12.960;2022-11-20T00:19:03;96249.13;;;18.02
70435;BMP280;57876;47.792;12.960;2022-11-20T00:21:28;96260.78;;;18.03
70435;BMP280;57876;47.792;12.960;2022-11-20T00:23:54;96249.69;;;18.01
70435;BMP280;57876;47.792;12.960;2022-11-20T00:26:20;96251.00;;;18.00
70435;BMP280;57876;47.792;12.960;2022-11-20T00:28:50;96259.06;;;17.98
70435;BMP280;57876;47.792;12.960;2022-11-20T00:31:15;96259.06;;;17.98
70435;BMP280;57876;47.792;12.960;2022-11-20T00:33:40;96258.94;;;17.96
70435;BMP280;57876;47.792;12.960;2022-11-20T00:36:07;96256.19;;;17.96
70435;BMP280;57876;47.792;12.960;2022-11-20T00:38:32;96266.44;;;17.95
70435;BMP280;57876;47.792;12.960;2022-11-20T00:41:02;96267.72;;;17.94
70435;BMP280;57876;47.792;12.960;2022-11-20T00:43:28;96277.25;;;17.93
70435;BMP280;57876;47.792;12.960;2022-11-20T00:48:27;96266.88;;;17.92
70435;BMP280;57876;47.792;12.960;2022-11-20T00:50:52;96272.94;;;17.91
70435;BMP280;57876;47.792;12.960;2022-11-20T00:53:17;96278.97;;;17.89
70435;BMP280;57876;47.792;12.960;2022-11-20T00:55:41;96277.69;;;17.90
70435;BMP280;57876;47.792;12.960;2022-11-20T00:58:06;96270.63;;;17.87
70435;BMP280;57876;47.792;12.960;2022-11-20T01:00:30;96280.28;;;17.88
70435;BMP280;57876;47.792;12.960;2022-11-20T01:02:55;96292.50;;;17.87
70435;BMP280;57876;47.792;12.960;2022-11-20T01:05:20;96282.91;;;17.86
70435;BMP280;57876;47.792;12.960;2022-11-20T01:07:44;96293.25;;;17.88
70435;BMP280;57876;47.792;12.960;2022-11-20T01:10:08;96297.88;;;17.85
70435;BMP280;57876;47.792;12.960;2022-11-20T01:12:33;96297.16;;;17.85
70435;BMP280;57876;47.792;12.960;2022-11-20T01:14:57;96291.69;;;17.85
70435;BMP280;57876;47.792;12.960;2022-11-20T01:17:21;96282.59;;;17.82
70435;BMP280;57876;47.792;12.960;2022-11-20T01:19:49;96286.78;;;17.83
70435;BMP280;57876;47.792;12.960;2022-11-20T01:22:13;96301.03;;;17.82
70435;BMP280;57876;47.792;12.960;2022-11-20T01:24:38;96297.59;;;17.81
70435;BMP280;57876;47.792;12.960;2022-11-20T01:27:02;96299.59;;;17.81
70435;BMP280;57876;47.792;12.960;2022-11-20T01:29:26;96296.16;;;17.80
70435;BMP280;57876;47.792;12.960;2022-11-20T01:31:51;96298.75;;;17.78
70435;BMP280;57876;47.792;12.960;2022-11-20T01:34:18;96294.72;;;17.79
70435;BMP280;57876;47.792;12.960;2022-11-20T01:36:43;96300.03;;;17.77
70435;BMP280;57876;47.792;12.960;2022-11-20T01:39:17;96295.91;;;17.76
70435;BMP280;57876;47.792;12.960;2022-11-20T01:41:42;96302.78;;;17.77
70435;BMP280;57876;47.792;12.960;2022-11-20T01:44:56;96296.44;;;17.75
70435;BMP280;57876;47.792;12.960;2022-11-20T01:47:28;96292.44;;;17.76
70435;BMP280;57876;47.792;12.960;2022-11-20T01:52:43;96295.00;;;17.74
70435;BMP280;57876;47.792;12.960;2022-11-20T01:55:14;96294.28;;;17.73
70435;BMP280;57876;47.792;12.960;2022-11-20T01:57:39;96288.81;;;17.73
70435;BMP280;57876;47.792;12.960;2022-11-20T02:00:10;96290.13;;;17.72
70435;BMP280;57876;47.792;12.960;2022-11-20T02:02:37;96285.94;;;17.71
70435;BMP280;57876;47.792;12.960;2022-11-20T02:05:09;96290.72;;;17.71
70435;BMP280;57876;47.792;12.960;2022-11-20T02:07:36;96282.50;;;17.71
70435;BMP280;57876;47.792;12.960;2022-11-20T02:10:01;96292.00;;;17.70
70435;BMP280;57876;47.792;12.960;2022-11-20T02:12:26;96297.47;;;17.70
70435;BMP280;57876;47.792;12.960;2022-11-20T02:15:09;96285.09;;;17.69
70435;BMP280;57876;47.792;12.960;2022-11-20T02:17:33;96298.03;;;17.68
70435;BMP280;57876;47.792;12.960;2022-11-20T02:19:57;96295.31;;;17.68
70435;BMP280;57876;47.792;12.960;2022-11-20T02:22:29;96293.91;;;17.67
70435;BMP280;57876;47.792;12.960;2022-11-20T02:24:54;96299.38;;;17.67
70435;BMP280;57876;47.792;12.960;2022-11-20T02:27:19;96295.91;;;17.67
70435;BMP280;57876;47.792;12.960;2022-11-20T02:29:53;96295.19;;;17.66
70435;BMP280;57876;47.792;12.960;2022-11-20T02:32:31;96301.22;;;17.65
70435;BMP280;57876;47.792;12.960;2022-11-20T02:34:56;96289.56;;;17.64
70435;BMP280;57876;47.792;12.960;2022-11-20T02:37:21;96295.75;;;17.65
70435;BMP280;57876;47.792;12.960;2022-11-20T02:39:47;96292.88;;;17.63
70435;BMP280;57876;47.792;12.960;2022-11-20T02:42:13;96290.16;;;17.63
70435;BMP280;57876;47.792;12.960;2022-11-20T02:44:37;96290.88;;;17.63
70435;BMP280;57876;47.792;12.960;2022-11-20T02:47:02;96296.91;;;17.62
70435;BMP280;57876;47.792;12.960;2022-11-20T02:49:26;96300.38;;;17.62
70435;BMP280;57876;47.792;12.960;2022-11-20T02:51:52;96301.69;;;17.61
70435;BMP280;57876;47.792;12.960;2022-11-20T02:54:16;96301.69;;;17.61
70435;BMP280;57876;47.792;12.960;2022-11-20T02:56:40;96294.03;;;17.60
70435;BMP280;57876;47.792;12.960;2022-11-20T02:59:05;96298.78;;;17.59
70435;BMP280;57876;47.792;12.960;2022-11-20T03:01:29;96299.50;;;17.60
70435;BMP280;57876;47.792;12.960;2022-11-20T03:03:54;96303.53;;;17.59
70435;BMP280;57876;47.792;12.960;2022-11-20T03:06:18;96297.38;;;17.58
70435;BMP280;57876;47.792;12.960;2022-11-20T03:08:43;96289.75;;;17.57
70435;BMP280;57876;47.792;12.960;2022-11-20T03:11:08;96296.66;;;17.58
70435;BMP280;57876;47.792;12.960;2022-11-20T03:13:33;96297.94;;;17.57
70435;BMP280;57876;47.792;12.960;2022-11-20T03:15:58;96299.94;;;17.56
70435;BMP280;57876;47.792;12.960;2022-11-20T03:18:22;96297.78;;;17.55
70435;BMP280;57876;47.792;12.960;2022-11-20T03:20:47;96299.94;;;17.56
70435;BMP280;57876;47.792;12.960;2022-11-20T03:23:11;96306.72;;;17.55
70435;BMP280;57876;47.792;12.960;2022-11-20T03:25:36;96302.41;;;17.52
70435;BMP280;57876;47.792;12.960;2022-11-20T03:28:00;96309.31;;;17.53
70435;BMP280;57876;47.792;12.960;2022-11-20T03:30:24;96304.59;;;17.54
70435;BMP280;57876;47.792;12.960;2022-11-20T03:32:49;96299.69;;;17.52
70435;BMP280;57876;47.792;12.960;2022-11-20T03:35:16;96307.16;;;17.52
70435;BMP280;57876;47.792;12.960;2022-11-20T03:37:41;96310.63;;;17.52
70435;BMP280;57876;47.792;12.960;2022-11-20T03:40:06;96306.44;;;17.51
70435;BMP280;57876;47.792;12.960;2022-11-20T03:42:30;96314.66;;;17.51
70435;BMP280;57876;47.792;12.960;2022-11-20T03:45:09;96315.94;;;17.50
70435;BMP280;57876;47.792;12.960;2022-11-20T03:47:34;96318.66;;;17.50
70435;BMP280;57876;47.792;12.960;2022-11-20T03:49:58;96319.38;;;17.51
70435;BMP280;57876;47.792;12.960;2022-11-20T03:52:23;96315.94;;;17.50
70435;BMP280;57876;47.792;12.960;2022-11-20T03:54:47;96315.19;;;17.50
70435;BMP280;57876;47.792;12.960;2022-11-20T03:57:11;96317.94;;;17.50
70435;BMP280;57876;47.792;12.960;2022-11-20T03:59:36;96326.03;;;17.48
70435;BMP280;57876;47.792;12.960;2022-11-20T04:02:00;96320.56;;;17.48
70435;BMP280;57876;47.792;12.960;2022-11-20T04:04:24;96328.03;;;17.47
70435;BMP280;57876;47.792;12.960;2022-11-20T04:06:49;96315.81;;;17.48
70435;BMP280;57876;47.792;12.960;2022-11-20T04:09:13;96325.31;;;17.47
70435;BMP280;57876;47.792;12.960;2022-11-20T04:11:39;96324.03;;;17.48
70435;BMP280;57876;47.792;12.960;2022-11-20T04:14:06;96318.41;;;17.46
70435;BMP280;57876;47.792;12.960;2022-11-20T04:16:33;96315.66;;;17.46
70435;BMP280;57876;47.792;12.960;2022-11-20T04:19:00;96308.72;;;17.45
70435;BMP280;57876;47.792;12.960;2022-11-20T04:21:25;96319.66;;;17.45
70435;BMP280;57876;47.792;12.960;2022-11-20T04:23:50;96316.22;;;17.45
70435;BMP280;57876;47.792;12.960;2022-11-20T04:26:15;96315.50;;;17.44
70435;BMP280;57876;47.792;12.960;2022-11-20T04:28:39;96310.75;;;17.45
70435;BMP280;57876;47.792;12.960;2022-11-20T04:31:10;96310.00;;;17.44
70435;BMP280;57876;47.792;12.960;2022-11-20T04:33:36;96314.06;;;17.43
70435;BMP280;57876;47.792;12.960;2022-11-20T04:36:09;96310.63;;;17.43
70435;BMP280;57876;47.792;12.960;2022-11-20T04:38:34;96318.22;;;17.44
70435;BMP280;57876;47.792;12.960;2022-11-20T04:41:00;96322.28;;;17.43
70435;BMP280;57876;47.792;12.960;2022-11-20T04:43:25;96313.38;;;17.43
70435;BMP280;57876;47.792;12.960;2022-11-20T04:45:56;96307.91;;;17.43
70435;BMP280;57876;47.792;12.960;2022-11-20T04:48:22;96311.94;;;17.42
70435;BMP280;57876;47.792;12.960;2022-11-20T04:50:46;96309.19;;;17.42
70435;BMP280;57876;47.792;12.960;2022-11-20T04:53:11;96316.66;;;17.41
70435;BMP280;57876;47.792;12.960;2022-11-20T04:55:35;96326.88;;;17.41
70435;BMP280;57876;47.792;12.960;2022-11-20T04:57:59;96322.72;;;17.40
70435;BMP280;57876;47.792;12.960;2022-11-20T05:00:24;96326.16;;;17.40
70435;BMP280;57876;47.792;12.960;2022-11-20T05:02:48;96330.91;;;17.40
70435;BMP280;57876;47.792;12.960;2022-11-20T05:05:12;96324.72;;;17.39
70435;BMP280;57876;47.792;12.960;2022-11-20T05:07:37;96329.50;;;17.39
70435;BMP280;57876;47.792;12.960;2022-11-20T05:10:01;96332.22;;;17.39
70435;BMP280;57876;47.792;12.960;2022-11-20T05:12:25;96333.50;;;17.38
70435;BMP280;57876;47.792;12.960;2022-11-20T05:14:50;96343.84;;;17.39
70435;BMP280;57876;47.792;12.960;2022-11-20T05:17:14;96340.44;;;17.39
70435;BMP280;57876;47.792;12.960;2022-11-20T05:19:38;96334.78;;;17.37
70435;BMP280;57876;47.792;12.960;2022-11-20T05:22:04;96341.00;;;17.37
70435;BMP280;57876;47.792;12.960;2022-11-20T05:24:29;96336.09;;;17.36
70435;BMP280;57876;47.792;12.960;2022-11-20T05:26:53;96343.00;;;17.37
70435;BMP280;57876;47.792;12.960;2022-11-20T05:29:18;96337.53;;;17.37
70435;BMP280;57876;47.792;12.960;2022-11-20T05:31:42;96347.03;;;17.36
70435;BMP280;57876;47.792;12.960;2022-11-20T05:34:06;96343.56;;;17.35
70435;BMP280;57876;47.792;12.960;2022-11-20T05:36:31;96343.72;;;17.37
70435;BMP280;57876;47.792;12.960;2022-11-20T05:38:55;96331.06;;;17.42
70435;BMP280;57876;47.792;12.960;2022-11-20T05:41:20;96345.28;;;17.50
70435;BMP280;57876;47.792;12.960;2022-11-20T05:43:46;96347.88;;;17.57
70435;BMP280;57876;47.792;12.960;2022-11-20T05:46:13;96330.00;;;17.66
70435;BMP280;57876;47.792;12.960;2022-11-20T05:48:39;96330.72;;;17.76
70435;BMP280;57876;47.792;12.960;2022-11-20T05:51:05;96332.56;;;17.83
70435;BMP280;57876;47.792;12.960;2022-11-20T05:53:31;96333.84;;;17.91
70435;BMP280;57876;47.792;12.960;2022-11-20T05:55:57;96334.25;;;17.97
70435;BMP280;57876;47.792;12.960;2022-11-20T05:58:22;96332.69;;;18.03
70435;BMP280;57876;47.792;12.960;2022-11-20T06:00:46;96340.44;;;18.07
70435;BMP280;57876;47.792;12.960;2022-11-20T06:03:10;96342.28;;;18.14
70435;BMP280;57876;47.792;12.960;2022-11-20T06:05:35;96345.59;;;18.22
70435;BMP280;57876;47.792;12.960;2022-11-20T06:08:00;96339.19;;;18.29
70435;BMP280;57876;47.792;12.960;2022-11-20T06:10:24;96344.94;;;18.33
70435;BMP280;57876;47.792;12.960;2022-11-20T06:12:49;96345.22;;;18.37
70435;BMP280;57876;47.792;12.960;2022-11-20T06:15:13;96350.97;;;18.41
70435;BMP280;57876;47.792;12.960;2022-11-20T06:17:37;96353.84;;;18.43
70435;BMP280;57876;47.792;12.960;2022-11-20T06:20:02;96341.03;;;18.45
70435;BMP280;57876;47.792;12.960;2022-11-20T06:22:26;96348.06;;;18.48
70435;BMP280;57876;47.792;12.960;2022-11-20T06:24:51;96347.47;;;18.50
70435;BMP280;57876;47.792;12.960;2022-11-20T06:27:15;96348.19;;;18.50
70435;BMP280;57876;47.792;12.960;2022-11-20T06:29:40;96354.34;;;18.51
70435;BMP280;57876;47.792;12.960;2022-11-20T06:32:04;96352.34;;;18.51
70435;BMP280;57876;47.792;12.960;2022-11-20T06:34:28;96350.34;;;18.52
70435;BMP280;57876;47.792;12.960;2022-11-20T06:36:53;96346.31;;;18.53
70435;BMP280;57876;47.792;12.960;2022-11-20T06:39:17;96354.34;;;18.51
70435;BMP280;57876;47.792;12.960;2022-11-20T06:41:42;96364.03;;;18.52
70435;BMP280;57876;47.792;12.960;2022-11-20T06:44:06;96359.84;;;18.51
70435;BMP280;57876;47.792;12.960;2022-11-20T06:46:31;96366.78;;;18.52
70435;BMP280;57876;47.792;12.960;2022-11-20T06:48:55;96362.56;;;18.51
70435;BMP280;57876;47.792;12.960;2022-11-20T06:51:19;96361.91;;;18.50
70435;BMP280;57876;47.792;12.960;2022-11-20T06:53:45;96367.94;;;18.49
70435;BMP280;57876;47.792;12.960;2022-11-20T06:56:09;96368.53;;;18.47
70435;BMP280;57876;47.792;12.960;2022-11-20T06:58:35;96371.97;;;18.48
70435;BMP280;57876;47.792;12.960;2022-11-20T07:01:04;96369.22;;;18.48
70435;BMP280;57876;47.792;12.960;2022-11-20T07:03:29;96376.75;;;18.47
70435;BMP280;57876;47.792;12.960;2022-11-20T07:05:57;96377.44;;;18.48
70435;BMP280;57876;47.792;12.960;2022-11-20T07:08:22;96375.31;;;18.46
70435;BMP280;57876;47.792;12.960;2022-11-20T07:10:46;96373.16;;;18.45
70435;BMP280;57876;47.792;12.960;2022-11-20T07:13:11;96374.59;;;18.46
70435;BMP280;57876;47.792;12.960;2022-11-20T07:15:35;96377.34;;;18.46
70435;BMP280;57876;47.792;12.960;2022-11-20T07:17:59;96380.06;;;18.46
70435;BMP280;57876;47.792;12.960;2022-11-20T07:20:24;96381.38;;;18.45
70435;BMP280;57876;47.792;12.960;2022-11-20T07:22:53;96384.22;;;18.47
70435;BMP280;57876;47.792;12.960;2022-11-20T07:25:18;96386.84;;;18.45
70435;BMP280;57876;47.792;12.960;2022-11-20T07:27:43;96390.31;;;18.45
70435;BMP280;57876;47.792;12.960;2022-11-20T07:30:07;96388.88;;;18.44
70435;BMP280;57876;47.792;12.960;2022-11-20T07:32:32;96382.66;;;18.44
70435;BMP280;57876;47.792;12.960;2022-11-20T07:34:56;96386.84;;;18.45
70435;BMP280;57876;47.792;12.960;2022-11-20T07:37:20;96389.59;;;18.45
70435;BMP280;57876;47.792;12.960;2022-11-20T07:39:45;96397.66;;;18.43
70435;BMP280;57876;47.792;12.960;2022-11-20T07:42:09;96392.88;;;18.43
70435;BMP280;57876;47.792;12.960;2022-11-20T07:44:36;96403.84;;;18.43
70435;BMP280;57876;47.792;12.960;2022-11-20T07:47:00;96396.38;;;18.44
70435;BMP280;57876;47.792;12.960;2022-11-20T07:49:25;96402.41;;;18.42
70435;BMP280;57876;47.792;12.960;2022-11-20T07:51:52;96406.59;;;18.43
70435;BMP280;57876;47.792;12.960;2022-11-20T07:54:17;96401.09;;;18.43
70435;BMP280;57876;47.792;12.960;2022-11-20T07:56:42;96401.84;;;18.44
70435;BMP280;57876;47.792;12.960;2022-11-20T07:59:06;96405.13;;;18.42
70435;BMP280;57876;47.792;12.960;2022-11-20T08:01:31;96414.09;;;18.43
70435;BMP280;57876;47.792;12.960;2022-11-20T08:03:55;96406.59;;;18.43
70435;BMP280;57876;47.792;12.960;2022-11-20T08:06:19;96403.84;;;18.43
70435;BMP280;57876;47.792;12.960;2022-11-20T08:08:44;96409.91;;;18.42
70435;BMP280;57876;47.792;12.960;2022-11-20T08:11:08;96407.88;;;18.42
70435;BMP280;57876;47.792;12.960;2022-11-20T08:13:51;96410.50;;;18.40
70435;BMP280;57876;47.792;12.960;2022-11-20T08:16:34;96404.31;;;18.40
70435;BMP280;57876;47.792;12.960;2022-11-20T08:18:58;96412.53;;;18.40
70435;BMP280;57876;47.792;12.960;2022-11-20T08:21:23;96406.91;;;18.38
70435;BMP280;57876;47.792;12.960;2022-11-20T08:23:48;96405.63;;;18.39
70435;BMP280;57876;47.792;12.960;2022-11-20T08:26:12;96414.53;;;18.39
70435;BMP280;57876;47.792;12.960;2022-11-20T08:28:36;96402.88;;;18.39
70435;BMP280;57876;47.792;12.960;2022-11-20T08:31:02;96409.06;;;18.39
70435;BMP280;57876;47.792;12.960;2022-11-20T08:33:26;96407.06;;;18.40
70435;BMP280;57876;47.792;12.960;2022-11-20T08:35:51;96401.59;;;18.40
70435;BMP280;57876;47.792;12.960;2022-11-20T08:38:15;96403.03;;;18.41
70435;BMP280;57876;47.792;12.960;2022-11-20T08:40:40;96400.28;;;18.41
70435;BMP280;57876;47.792;12.960;2022-11-20T08:43:04;96404.31;;;18.40
70435;BMP280;57876;47.792;12.960;2022-11-20T08:45:28;96403.72;;;18.41
70435;BMP280;57876;47.792;12.960;2022-11-20T08:47:53;96401.00;;;18.41
70435;BMP280;57876;47.792;12.960;2022-11-20T08:50:17;96401.69;;;18.42
70435;BMP280;57876;47.792;12.960;2022-11-20T08:52:42;96414.09;;;18.43
70435;BMP280;57876;47.792;12.960;2022-11-20T08:55:07;96398.38;;;18.43
70435;BMP280;57876;47.792;12.960;2022-11-20T08:57:32;96415.53;;;18.44
70435;BMP280;57876;47.792;12.960;2022-11-20T08:59:57;96401.84;;;18.44
70435;BMP280;57876;47.792;12.960;2022-11-20T09:02:21;96406.03;;;18.45
70435;BMP280;57876;47.792;12.960;2022-11-20T09:04:46;96410.06;;;18.44
70435;BMP280;57876;47.792;12.960;2022-11-20T09:07:10;96410.06;;;18.44
70435;BMP280;57876;47.792;12.960;2022-11-20T09:09:34;96408.06;;;18.44
70435;BMP280;57876;47.792;12.960;2022-11-20T09:11:59;96416.97;;;18.45
70435;BMP280;57876;47.792;12.960;2022-11-20T09:14:23;96402.56;;;18.44
70435;BMP280;57876;47.792;12.960;2022-11-20T09:16:53;96396.38;;;18.44
70435;BMP280;57876;47.792;12.960;2022-11-20T09:19:17;96405.31;;;18.44
70435;BMP280;57876;47.792;12.960;2022-11-20T09:21:41;96416.97;;;18.45
70435;BMP280;57876;47.792;12.960;2022-11-20T09:24:06;96407.47;;;18.46
70435;BMP280;57876;47.792;12.960;2022-11-20T09:26:30;96413.53;;;18.44
70435;BMP280;57876;47.792;12.960;2022-11-20T09:28:55;96416.97;;;18.45
70435;BMP280;57876;47.792;12.960;2022-11-20T09:31:23;96411.50;;;18.45
70435;BMP280;57876;47.792;12.960;2022-11-20T09:33:47;96412.22;;;18.45
70435;BMP280;57876;47.792;12.960;2022-11-20T09:36:11;96413.66;;;18.46
70435;BMP280;57876;47.792;12.960;2022-11-20T09:38:36;96407.47;;;18.46
70435;BMP280;57876;47.792;12.960;2022-11-20T09:41:05;96414.34;;;18.47
70435;BMP280;57876;47.792;12.960;2022-11-20T09:44:01;96403.41;;;18.47
70435;BMP280;57876;47.792;12.960;2022-11-20T09:49:18;96410.19;;;18.46
70435;BMP280;57876;47.792;12.960;2022-11-20T09:51:58;96395.19;;;18.47
70435;BMP280;57876;47.792;12.960;2022-11-20T09:54:29;96396.50;;;18.46
70435;BMP280;57876;47.792;12.960;2022-11-20T09:57:00;96383.53;;;18.46
70435;BMP280;57876;47.792;12.960;2022-11-20T10:01:56;96394.47;;;18.46
70435;BMP280;57876;47.792;12.960;2022-11-20T10:04:22;96380.78;;;18.46
70435;BMP280;57876;47.792;12.960;2022-11-20T10:06:57;96388.28;;;18.46
70435;BMP280;57876;47.792;12.960;2022-11-20T10:09:29;96389.00;;;18.46
70435;BMP280;57876;47.792;12.960;2022-11-20T10:17:47;96375.88;;;18.45
70435;BMP280;57876;47.792;12.960;2022-11-20T10:25:18;96372.44;;;18.44
70435;BMP280;57876;47.792;12.960;2022-11-20T10:30:20;96373.88;;;18.45
70435;BMP280;57876;47.792;12.960;2022-11-20T10:33:18;96374.44;;;18.44
70435;BMP280;57876;47.792;12.960;2022-11-20T10:38:44;96361.59;;;18.46
70435;BMP280;57876;47.792;12.960;2022-11-20T10:41:20;96358.88;;;18.46
70435;BMP280;57876;47.792;12.960;2022-11-20T10:44:14;96358.16;;;18.46
70435;BMP280;57876;47.792;12.960;2022-11-20T10:46:44;96364.34;;;18.46
70435;BMP280;57876;47.792;12.960;2022-11-20T10:49:17;96362.31;;;18.47
70435;BMP280;57876;47.792;12.960;2022-11-20T10:51:49;96343.13;;;18.47
70435;BMP280;57876;47.792;12.960;2022-11-20T10:54:19;96354.09;;;18.47
70435;BMP280;57876;47.792;12.960;2022-11-20T10:56:48;96349.34;;;18.47
70435;BMP280;57876;47.792;12.960;2022-11-20T11:01:50;96348.63;;;18.47
70435;BMP280;57876;47.792;12.960;2022-11-20T11:06:47;96341.84;;;18.48
70435;BMP280;57876;47.792;12.960;2022-11-20T11:09:17;96335.66;;;18.47
70435;BMP280;57876;47.792;12.960;2022-11-20T11:11:44;96326.69;;;18.47
70435;BMP280;57876;47.792;12.960;2022-11-20T11:14:13;96326.00;;;18.46
70435;BMP280;57876;47.792;12.960;2022-11-20T11:16:52;96326.69;;;18.47
70435;BMP280;57876;47.792;12.960;2022-11-20T11:19:17;96326.16;;;18.48
70435;BMP280;57876;47.792;12.960;2022-11-20T11:21:51;96321.22;;;18.47
70435;BMP280;57876;47.792;12.960;2022-11-20T11:24:27;96326.00;;;18.46
70435;BMP280;57876;47.792;12.960;2022-11-20T11:27:03;96323.41;;;18.48
70435;BMP280;57876;47.792;12.960;2022-11-20T11:29:28;96317.19;;;18.48
70435;BMP280;57876;47.792;12.960;2022-11-20T11:32:23;96313.75;;;18.47
70435;BMP280;57876;47.792;12.960;2022-11-20T11:35:04;96306.22;;;18.48
70435;BMP280;57876;47.792;12.960;2022-11-20T11:37:34;96317.91;;;18.48
70435;BMP280;57876;47.792;12.960;2022-11-20T11:39:59;96315.88;;;18.49
70435;BMP280;57876;47.792;12.960;2022-11-20T11:42:24;96313.88;;;18.49
70435;BMP280;57876;47.792;12.960;2022-11-20T11:44:49;96314.59;;;18.50
70435;BMP280;57876;47.792;12.960;2022-11-20T11:53:02;96316.16;;;18.53
70435;BMP280;57876;47.792;12.960;2022-11-20T11:55:51;96315.44;;;18.52
70435;BMP280;57876;47.792;12.960;2022-11-20T12:03:40;96301.03;;;18.52
70435;BMP280;57876;47.792;12.960;2022-11-20T12:06:14;96292.81;;;18.52
70435;BMP280;57876;47.792;12.960;2022-11-20T12:08:49;96294.25;;;18.53
70435;BMP280;57876;47.792;12.960;2022-11-20T12:11:49;96290.09;;;18.52
70435;BMP280;57876;47.792;12.960;2022-11-20T12:14:24;96288.03;;;18.52
70435;BMP280;57876;47.792;12.960;2022-11-20T12:16:52;96283.13;;;18.51
70435;BMP280;57876;47.792;12.960;2022-11-20T12:19:17;96272.91;;;18.51
70435;BMP280;57876;47.792;12.960;2022-11-20T12:30:16;96274.25;;;18.50
70435;BMP280;57876;47.792;12.960;2022-11-20T12:43:25;96263.97;;;18.51
70435;BMP280;57876;47.792;12.960;2022-11-20T12:49:42;96258.47;;;18.51
70435;BMP280;57876;47.792;12.960;2022-11-20T12:52:10;96253.75;;;18.51
70435;BMP280;57876;47.792;12.960;2022-11-20T12:54:55;96259.09;;;18.49
70435;BMP280;57876;47.792;12.960;2022-11-20T12:57:46;96252.19;;;18.48
70435;BMP280;57876;47.792;12.960;2022-11-20T13:00:21;96254.31;;;18.50
70435;BMP280;57876;47.792;12.960;2022-11-20T13:08:21;96245.97;;;18.48
70435;BMP280;57876;47.792;12.960;2022-11-20T13:10:56;96245.41;;;18.49
70435;BMP280;57876;47.792;12.960;2022-11-20T13:13:46;96243.97;;;18.48
70435;BMP280;57876;47.792;12.960;2022-11-20T13:16:17;96235.00;;;18.48
70435;BMP280;57876;47.792;12.960;2022-11-20T13:18:44;96239.19;;;18.49
70435;BMP280;57876;47.792;12.960;2022-11-20T13:21:34;96237.19;;;18.49
70435;BMP280;57876;47.792;12.960;2022-11-20T13:24:29;96233.16;;;18.50
70435;BMP280;57876;47.792;12.960;2022-11-20T13:27:01;96217.41;;;18.51
70435;BMP280;57876;47.792;12.960;2022-11-20T13:29:26;96222.19;;;18.50
70435;BMP280;57876;47.792;12.960;2022-11-20T13:31:50;96227.66;;;18.50
70435;BMP280;57876;47.792;12.960;2022-11-20T13:34:26;96227.66;;;18.50
70435;BMP280;57876;47.792;12.960;2022-11-20T13:36:52;96240.19;;;18.53
70435;BMP280;57876;47.792;12.960;2022-11-20T13:39:28;96227.06;;;18.52
70435;BMP280;57876;47.792;12.960;2022-11-20T13:41:55;96230.53;;;18.52
70435;BMP280;57876;47.792;12.960;2022-11-20T13:44:42;96222.31;;;18.52
70435;BMP280;57876;47.792;12.960;2022-11-20T13:47:21;96225.03;;;18.52
70435;BMP280;57876;47.792;12.960;2022-11-20T13:49:46;96216.81;;;18.52
70435;BMP280;57876;47.792;12.960;2022-11-20T14:01:10;96212.06;;;18.53
70435;BMP280;57876;47.792;12.960;2022-11-20T14:03:35;96206.59;;;18.53
70435;BMP280;57876;47.792;12.960;2022-11-20T14:06:05;96212.06;;;18.53
70435;BMP280;57876;47.792;12.960;2022-11-20T14:08:45;96225.78;;;18.53
70435;BMP280;57876;47.792;12.960;2022-11-20T14:11:24;96223.03;;;18.53
70435;BMP280;57876;47.792;12.960;2022-11-20T14:13:55;96211.34;;;18.52
70435;BMP280;57876;47.792;12.960;2022-11-20T14:16:21;96220.31;;;18.53
70435;BMP280;57876;47.792;12.960;2022-11-20T14:18:45;96214.81;;;18.53
70435;BMP280;57876;47.792;12.960;2022-11-20T14:21:09;96215.53;;;18.53
70435;BMP280;57876;47.792;12.960;2022-11-20T14:23:34;96209.34;;;18.53
70435;BMP280;57876;47.792;12.960;2022-11-20T14:25:58;96221.75;;;18.54
70435;BMP280;57876;47.792;12.960;2022-11-20T14:28:32;96210.03;;;18.53
70435;BMP280;57876;47.792;12.960;2022-11-20T14:30:57;96204.56;;;18.53
70435;BMP280;57876;47.792;12.960;2022-11-20T14:33:22;96210.03;;;18.53
70435;BMP280;57876;47.792;12.960;2022-11-20T14:35:54;96210.78;;;18.54
70435;BMP280;57876;47.792;12.960;2022-11-20T14:38:24;96211.50;;;18.54
70435;BMP280;57876;47.792;12.960;2022-11-20T14:40:49;96203.88;;;18.53
70435;BMP280;57876;47.792;12.960;2022-11-20T14:45:43;96221.75;;;18.54
70435;BMP280;57876;47.792;12.960;2022-11-20T14:48:09;96220.44;;;18.55
70435;BMP280;57876;47.792;12.960;2022-11-20T14:50:35;96224.47;;;18.54
70435;BMP280;57876;47.792;12.960;2022-11-20T14:53:00;96227.91;;;18.54
70435;BMP280;57876;47.792;12.960;2022-11-20T14:55:37;96230.66;;;18.54
70435;BMP280;57876;47.792;12.960;2022-11-20T14:58:04;96228.66;;;18.55
70435;BMP280;57876;47.792;12.960;2022-11-20T15:00:34;96234.69;;;18.53
70435;BMP280;57876;47.792;12.960;2022-11-20T15:02:59;96238.88;;;18.54
70435;BMP280;57876;47.792;12.960;2022-11-20T15:05:26;96240.28;;;18.55
70435;BMP280;57876;47.792;12.960;2022-11-20T15:08:09;96245.09;;;18.55
70435;BMP280;57876;47.792;12.960;2022-11-20T15:10:34;96238.19;;;18.54
70435;BMP280;57876;47.792;12.960;2022-11-20T15:13:01;96249.84;;;18.54
70435;BMP280;57876;47.792;12.960;2022-11-20T15:15:42;96245.09;;;18.55
70435;BMP280;57876;47.792;12.960;2022-11-20T15:18:12;96242.34;;;18.55
70435;BMP280;57876;47.792;12.960;2022-11-20T15:20:37;96249.25;;;18.56
70435;BMP280;57876;47.792;12.960;2022-11-20T15:23:16;96250.69;;;18.57